Zim Vancouver — A8LK5 — position and weather

sailwx.info

Track history (hours):
 
Tides and Currents Weather Stations Pressure Air Temp Water Temp Dewpoint Dewpoint Depression Visibility Wind Speed Wind Dir Waves Ship Positions

Zim Vancouver

Last reported at 2016-Aug-28 08:33 UTC. Time now 2016-Aug-28 08:40 UTC.
Position N 36°54' W 076°20'.

Length 260 m; draft 9.9 m.

Type: Ship. MMSI: 636013214.

Date/timePositionNaut miles runAvg speedWind from/ knotsBaromVisibWave heightAir tempDewpointWater temp
2016-Aug-28 08:33N 36°54' W 076°20'9 9.4
2016-Aug-28 07:33N 36°59' W 076°11'1212.4
2016-Aug-28 06:33N 36°56' W 075°56'9811.7
2016-Aug-27 22:11N 38°12' W 074°38'7913.4
2016-Aug-27 16:20N 39°25' W 073°59'1215.3
2016-Aug-27 15:33N 39°36' W 073°55'1515.2
2016-Aug-27 14:34N 39°51' W 073°51'1515.1
2016-Aug-27 13:33N 40°06' W 073°50'1614.7
2016-Aug-27 12:27N 40°22' W 073°49'1213.5
2016-Aug-27 11:33N 40°31' W 073°60'1010.0
2016-Aug-27 10:33N 40°39' W 074°09'2 1.6
2016-Aug-27 09:31N 40°40' W 074°09'0 0.0
2016-Aug-27 08:31N 40°40' W 074°09'0 0.0
2016-Aug-27 07:31N 40°40' W 074°09'0 0.0
2016-Aug-27 06:31N 40°40' W 074°09'0 0.0
2016-Aug-27 04:31N 40°40' W 074°09'0 0.0
2016-Aug-27 03:31N 40°40' W 074°09'0 0.0
2016-Aug-27 02:31N 40°40' W 074°09'0 0.0
2016-Aug-27 01:31N 40°40' W 074°09'0 0.0
2016-Aug-27 00:28N 40°40' W 074°09'0 0.0
2016-Aug-26 23:31N 40°40' W 074°09'0 0.0
2016-Aug-26 22:31N 40°40' W 074°09'0 0.0
2016-Aug-26 21:31N 40°40' W 074°09'0 0.0
2016-Aug-26 20:31N 40°40' W 074°09'0 0.0
2016-Aug-26 19:31N 40°40' W 074°09'0 0.0
2016-Aug-26 18:31N 40°40' W 074°09'0 0.0
2016-Aug-26 17:31N 40°40' W 074°09'0 0.0
2016-Aug-26 16:28N 40°40' W 074°09'0 0.0
2016-Aug-26 15:31N 40°40' W 074°09'0 0.0
2016-Aug-26 14:31N 40°40' W 074°09'0 0.0
2016-Aug-26 13:28N 40°40' W 074°09'0 0.0
2016-Aug-26 12:31N 40°40' W 074°09'0 0.0
2016-Aug-26 11:25N 40°40' W 074°09'0 0.0
2016-Aug-26 10:31N 40°40' W 074°09'1 1.0
2016-Aug-26 09:34N 40°39' W 074°09'4 4.2
2016-Aug-26 08:33N 40°39' W 074°03'1110.9
2016-Aug-26 07:34N 40°30' W 073°55'10 8.8
2016-Aug-26 06:25N 40°27' W 073°43'12716.1
2016-Aug-25 22:33N 40°32' W 070°56'35915.9
2016-Aug-25 00:00N 43°42' W 064°06'81 4.5 240 / 221022.010.8 2.521.017.0
2016-Aug-24 06:00N 44°30' W 062°36'7412.3 270 / 91022.010.8 2.520.015.0
2016-Aug-24 00:00N 44°18' W 060°54'   290 / 191021.010.8 2.020.014.0
2016-Aug-21 00:00N 43°00' W 037°06'16513.7 330 / 251018.010.8 3.519.014.0
2016-Aug-20 12:00N 42°36' W 033°24'35514.8 200 / 301015.010.8 3.023.022.024.0
2016-Aug-19 12:00N 41°24' W 025°36'16814.0 340 / 51020.010.8 23.015.024.0
2016-Aug-19 00:00N 40°42' W 022°00'17314.5 250 / 161017.010.8 2.021.015.024.0
2016-Aug-18 12:00N 39°48' W 018°24'   250 / 161018.010.8 2.025.022.024.0
Track history (hours):
 
Tides and Currents Weather Stations Pressure Air Temp Water Temp Dewpoint Dewpoint Depression Visibility Wind Speed Wind Dir Waves Ship Positions

Zim Vancouver

Last reported at 2016-Aug-28 08:33 UTC. Time now 2016-Aug-28 08:40 UTC.
Position N 36°54' W 076°20'.

Length 260 m; draft 9.9 m.

Type: Ship. MMSI: 636013214.

Date/timePositionNaut miles runAvg speedWind from/ knotsBaromVisibWave heightAir tempDewpointWater temp
2016-Aug-28 08:33N 36°54' W 076°20'9 9.4
2016-Aug-28 07:33N 36°59' W 076°11'1212.4
2016-Aug-28 06:33N 36°56' W 075°56'9811.7
2016-Aug-27 22:11N 38°12' W 074°38'7913.4
2016-Aug-27 16:20N 39°25' W 073°59'1215.3
2016-Aug-27 15:33N 39°36' W 073°55'1515.2
2016-Aug-27 14:34N 39°51' W 073°51'1515.1
2016-Aug-27 13:33N 40°06' W 073°50'1614.7
2016-Aug-27 12:27N 40°22' W 073°49'1213.5
2016-Aug-27 11:33N 40°31' W 073°60'1010.0
2016-Aug-27 10:33N 40°39' W 074°09'2 1.6
2016-Aug-27 09:31N 40°40' W 074°09'0 0.0
2016-Aug-27 08:31N 40°40' W 074°09'0 0.0
2016-Aug-27 07:31N 40°40' W 074°09'0 0.0
2016-Aug-27 06:31N 40°40' W 074°09'0 0.0
2016-Aug-27 04:31N 40°40' W 074°09'0 0.0
2016-Aug-27 03:31N 40°40' W 074°09'0 0.0
2016-Aug-27 02:31N 40°40' W 074°09'0 0.0
2016-Aug-27 01:31N 40°40' W 074°09'0 0.0
2016-Aug-27 00:28N 40°40' W 074°09'0 0.0
2016-Aug-26 23:31N 40°40' W 074°09'0 0.0
2016-Aug-26 22:31N 40°40' W 074°09'0 0.0
2016-Aug-26 21:31N 40°40' W 074°09'0 0.0
2016-Aug-26 20:31N 40°40' W 074°09'0 0.0
2016-Aug-26 19:31N 40°40' W 074°09'0 0.0
2016-Aug-26 18:31N 40°40' W 074°09'0 0.0
2016-Aug-26 17:31N 40°40' W 074°09'0 0.0
2016-Aug-26 16:28N 40°40' W 074°09'0 0.0
2016-Aug-26 15:31N 40°40' W 074°09'0 0.0
2016-Aug-26 14:31N 40°40' W 074°09'0 0.0
2016-Aug-26 13:28N 40°40' W 074°09'0 0.0
2016-Aug-26 12:31N 40°40' W 074°09'0 0.0
2016-Aug-26 11:25N 40°40' W 074°09'0 0.0
2016-Aug-26 10:31N 40°40' W 074°09'1 1.0
2016-Aug-26 09:34N 40°39' W 074°09'4 4.2
2016-Aug-26 08:33N 40°39' W 074°03'1110.9
2016-Aug-26 07:34N 40°30' W 073°55'10 8.8
2016-Aug-26 06:25N 40°27' W 073°43'12716.1
2016-Aug-25 22:33N 40°32' W 070°56'35915.9
2016-Aug-25 00:00N 43°42' W 064°06'81 4.5 240 / 221022.010.8 2.521.017.0
2016-Aug-24 06:00N 44°30' W 062°36'7412.3 270 / 91022.010.8 2.520.015.0
2016-Aug-24 00:00N 44°18' W 060°54'   290 / 191021.010.8 2.020.014.0
2016-Aug-21 00:00N 43°00' W 037°06'16513.7 330 / 251018.010.8 3.519.014.0
2016-Aug-20 12:00N 42°36' W 033°24'35514.8 200 / 301015.010.8 3.023.022.024.0
2016-Aug-19 12:00N 41°24' W 025°36'16814.0 340 / 51020.010.8 23.015.024.0
2016-Aug-19 00:00N 40°42' W 022°00'17314.5 250 / 161017.010.8 2.021.015.024.0
2016-Aug-18 12:00N 39°48' W 018°24'   250 / 161018.010.8 2.025.022.024.0

Dump ship's entire track history